createdAt,value
2023-08-16T00:00:51.675Z,0.00
2023-08-16T00:01:51.668Z,0.00
2023-08-16T00:02:51.743Z,0.00
2023-08-16T00:03:52.071Z,0.00
2023-08-16T00:04:51.776Z,0.00
2023-08-16T00:05:51.629Z,0.00
2023-08-16T00:06:51.579Z,0.00
2023-08-16T00:07:51.594Z,0.00
2023-08-16T00:08:51.556Z,0.00
2023-08-16T00:09:51.567Z,0.00
2023-08-16T00:10:51.561Z,0.00
2023-08-16T00:11:51.529Z,0.00
2023-08-16T00:12:51.530Z,0.00
2023-08-16T00:13:51.517Z,0.00
2023-08-16T00:14:51.495Z,0.00
2023-08-16T00:15:51.499Z,0.00
2023-08-16T00:16:51.498Z,0.00
2023-08-16T00:17:51.502Z,0.00
2023-08-16T00:18:51.447Z,0.00
2023-08-16T00:19:51.651Z,0.00
2023-08-16T00:20:51.475Z,0.00
2023-08-16T00:21:51.635Z,0.00
2023-08-16T00:22:51.424Z,0.00
2023-08-16T00:23:51.456Z,0.00
2023-08-16T00:24:51.401Z,0.00
2023-08-16T00:25:51.615Z,0.00
2023-08-16T00:26:51.366Z,0.00
2023-08-16T00:27:51.780Z,0.00
2023-08-16T00:28:51.353Z,0.00
2023-08-16T00:29:51.343Z,0.00
2023-08-16T00:30:51.403Z,0.00
2023-08-16T00:31:51.526Z,0.00
2023-08-16T00:32:51.329Z,0.00
2023-08-16T00:33:51.310Z,0.00
2023-08-16T00:34:51.282Z,0.00
2023-08-16T00:35:51.280Z,0.00
2023-08-16T00:36:51.298Z,0.00
2023-08-16T00:37:51.279Z,0.00
2023-08-16T00:38:51.650Z,0.00
2023-08-16T00:39:51.236Z,0.00
2023-08-16T00:40:51.234Z,0.00
2023-08-16T00:41:51.215Z,0.00
2023-08-16T00:42:51.616Z,0.00
2023-08-16T00:43:51.397Z,0.00
2023-08-16T00:44:51.193Z,0.00
2023-08-16T00:45:51.192Z,0.00
2023-08-16T00:46:51.198Z,0.00
2023-08-16T00:47:51.174Z,0.00
2023-08-16T00:48:51.134Z,0.00
2023-08-16T00:49:51.136Z,0.00
2023-08-16T00:50:51.146Z,0.00
2023-08-16T00:51:51.107Z,0.00
2023-08-16T00:52:51.111Z,0.00
2023-08-16T00:53:51.296Z,0.00
2023-08-16T00:54:51.097Z,0.00
2023-08-16T00:55:51.343Z,0.00
2023-08-16T00:56:51.058Z,0.00
2023-08-16T00:57:51.072Z,0.00
2023-08-16T00:58:51.025Z,0.00
2023-08-16T00:59:51.032Z,0.00
2023-08-16T01:00:51.046Z,0.00
2023-08-16T01:01:51.067Z,0.00
2023-08-16T01:02:51.266Z,0.00
2023-08-16T01:03:51.064Z,0.00
2023-08-16T01:04:50.975Z,0.00
2023-08-16T01:05:51.172Z,0.00
2023-08-16T01:06:50.938Z,0.00
2023-08-16T01:07:51.171Z,0.00
2023-08-16T01:08:51.152Z,0.00
2023-08-16T01:09:50.929Z,0.00
2023-08-16T01:10:50.931Z,0.00
2023-08-16T01:11:50.900Z,0.00
2023-08-16T01:12:50.884Z,0.00
2023-08-16T01:13:50.873Z,0.00
2023-08-16T01:14:50.872Z,0.00
2023-08-16T01:15:50.896Z,0.00
2023-08-16T01:16:51.043Z,0.00
2023-08-16T01:17:50.862Z,0.00
2023-08-16T01:18:50.808Z,0.00
2023-08-16T01:19:51.220Z,0.00
2023-08-16T01:20:50.821Z,0.00
2023-08-16T01:21:50.792Z,0.00
2023-08-16T01:22:50.779Z,0.00
2023-08-16T01:23:50.767Z,0.00
2023-08-16T01:24:50.786Z,0.00
2023-08-16T01:25:50.755Z,0.00
2023-08-16T01:26:50.934Z,0.00
2023-08-16T01:27:50.753Z,0.00
2023-08-16T01:28:50.711Z,0.00
2023-08-16T01:29:50.709Z,0.00
2023-08-16T01:30:50.692Z,0.00
2023-08-16T01:31:50.727Z,0.00
2023-08-16T01:32:50.940Z,0.00
2023-08-16T01:33:50.679Z,0.00
2023-08-16T01:34:50.644Z,0.00
2023-08-16T01:35:50.684Z,0.00
2023-08-16T01:36:50.623Z,0.00
2023-08-16T01:37:50.617Z,0.00
2023-08-16T01:38:50.595Z,0.00
2023-08-16T01:39:50.594Z,0.00
2023-08-16T01:40:50.604Z,0.00
2023-08-16T01:41:50.575Z,0.00
2023-08-16T01:42:50.565Z,0.00
2023-08-16T01:43:50.555Z,0.00
2023-08-16T01:44:50.530Z,0.00
2023-08-16T01:45:50.803Z,0.00
2023-08-16T01:46:50.561Z,0.00
2023-08-16T01:47:50.536Z,0.00
2023-08-16T01:48:50.497Z,0.00
2023-08-16T01:49:50.493Z,0.00
2023-08-16T01:50:50.470Z,0.00
2023-08-16T01:51:50.473Z,0.00
2023-08-16T01:52:50.450Z,0.00
2023-08-16T01:53:50.445Z,0.00
2023-08-16T01:54:50.429Z,0.00
2023-08-16T01:55:50.425Z,0.00
2023-08-16T01:56:50.427Z,0.00
2023-08-16T01:57:50.409Z,0.00
2023-08-16T01:58:50.405Z,0.00
2023-08-16T01:59:50.383Z,0.00
2023-08-16T02:00:50.369Z,0.00
2023-08-16T02:01:50.511Z,0.00
2023-08-16T02:02:50.456Z,0.00
2023-08-16T02:03:50.346Z,0.00
2023-08-16T02:04:50.317Z,0.00
2023-08-16T02:05:50.323Z,0.00
2023-08-16T02:06:50.296Z,0.00
2023-08-16T02:07:50.296Z,0.00
2023-08-16T02:08:50.279Z,0.00
2023-08-16T02:09:50.282Z,0.00
2023-08-16T02:10:50.264Z,0.00
2023-08-16T02:11:50.267Z,0.00
2023-08-16T02:12:50.260Z,0.00
2023-08-16T02:13:50.245Z,0.00
2023-08-16T02:14:50.219Z,0.00
2023-08-16T02:15:51.346Z,0.00
2023-08-16T02:16:50.193Z,0.00
2023-08-16T02:17:50.212Z,0.00
2023-08-16T02:18:50.183Z,0.00
2023-08-16T02:19:50.168Z,0.00
2023-08-16T02:20:50.153Z,0.00
2023-08-16T02:21:50.144Z,0.00
2023-08-16T02:22:50.132Z,0.00
2023-08-16T02:23:50.129Z,0.00
2023-08-16T02:24:50.104Z,0.00
2023-08-16T02:25:50.107Z,0.00
2023-08-16T02:26:50.094Z,0.00
2023-08-16T02:27:50.088Z,0.00
2023-08-16T02:28:50.095Z,0.00
2023-08-16T02:29:50.070Z,0.00
2023-08-16T02:30:50.069Z,0.00
2023-08-16T02:31:50.054Z,0.00
2023-08-16T02:32:50.080Z,0.00
2023-08-16T02:33:50.012Z,0.00
2023-08-16T02:34:50.004Z,0.00
2023-08-16T02:35:50.003Z,0.00
2023-08-16T02:36:49.985Z,0.00
2023-08-16T02:37:49.991Z,0.00
2023-08-16T02:38:49.967Z,0.00
2023-08-16T02:39:49.946Z,0.00
2023-08-16T02:40:49.946Z,0.00
2023-08-16T02:41:51.355Z,0.00
2023-08-16T02:42:49.923Z,0.00
2023-08-16T02:43:49.919Z,0.00
2023-08-16T02:44:49.931Z,0.00
2023-08-16T02:45:49.882Z,0.00
2023-08-16T02:46:49.917Z,0.00
2023-08-16T02:47:49.893Z,0.00
2023-08-16T02:48:49.859Z,0.00
2023-08-16T02:49:49.847Z,0.00
2023-08-16T02:50:49.859Z,0.00
2023-08-16T02:51:49.816Z,0.00
2023-08-16T02:52:49.821Z,0.00
2023-08-16T02:53:49.802Z,0.00
2023-08-16T02:54:49.811Z,0.00
2023-08-16T02:55:49.778Z,0.00
2023-08-16T02:56:49.771Z,0.00
2023-08-16T02:57:49.772Z,0.00
2023-08-16T02:58:49.768Z,0.00
2023-08-16T02:59:49.746Z,0.00
2023-08-16T03:00:49.810Z,0.00
2023-08-16T03:01:49.751Z,0.00
2023-08-16T03:02:49.785Z,0.00
2023-08-16T03:03:49.701Z,0.00
2023-08-16T03:04:49.691Z,0.00
2023-08-16T03:05:49.669Z,0.00
2023-08-16T03:06:49.741Z,0.00
2023-08-16T03:07:49.663Z,0.00
2023-08-16T03:08:49.658Z,0.00
2023-08-16T03:09:49.636Z,0.00
2023-08-16T03:10:49.624Z,0.00
2023-08-16T03:11:49.605Z,0.00
2023-08-16T03:12:49.612Z,0.00
2023-08-16T03:13:49.587Z,0.00
2023-08-16T03:14:49.588Z,0.00
2023-08-16T03:15:49.566Z,0.00
2023-08-16T03:16:49.613Z,0.00
2023-08-16T03:17:49.607Z,0.00
2023-08-16T03:18:49.543Z,0.00
2023-08-16T03:19:49.529Z,0.00
2023-08-16T03:20:49.525Z,0.00
2023-08-16T03:21:49.511Z,0.00
2023-08-16T03:22:49.509Z,0.00
2023-08-16T03:23:49.477Z,0.00
2023-08-16T03:24:49.495Z,0.00
2023-08-16T03:25:49.460Z,0.00
2023-08-16T03:26:49.466Z,0.00
2023-08-16T03:27:49.449Z,0.00
2023-08-16T03:28:49.441Z,0.00
2023-08-16T03:29:49.425Z,0.00
2023-08-16T03:30:49.449Z,0.00
2023-08-16T03:31:49.392Z,0.00
2023-08-16T03:32:49.457Z,0.00
2023-08-16T03:33:49.388Z,0.00
2023-08-16T03:34:49.379Z,0.00
2023-08-16T03:35:49.374Z,0.00
2023-08-16T03:36:49.364Z,0.00
2023-08-16T03:37:49.337Z,0.00
2023-08-16T03:38:49.332Z,0.00
2023-08-16T03:39:49.318Z,0.00
2023-08-16T03:40:49.325Z,0.00
2023-08-16T03:41:49.293Z,0.00
2023-08-16T03:42:49.290Z,0.00
2023-08-16T03:43:49.274Z,0.00
2023-08-16T03:44:49.272Z,0.00
2023-08-16T03:45:49.259Z,0.00
2023-08-16T03:46:49.249Z,0.00
2023-08-16T03:47:49.254Z,0.00
2023-08-16T03:48:49.254Z,0.00
2023-08-16T03:49:49.206Z,0.00
2023-08-16T03:50:49.220Z,0.00
2023-08-16T03:51:49.186Z,0.00
2023-08-16T03:52:49.187Z,0.00
2023-08-16T03:53:49.167Z,0.00
2023-08-16T03:54:49.163Z,0.00
2023-08-16T03:55:49.145Z,0.00
2023-08-16T03:56:49.083Z,1.00
2023-08-16T03:57:49.150Z,0.00
2023-08-16T03:58:49.173Z,1.00
2023-08-16T03:59:49.046Z,1.00
2023-08-16T04:00:49.058Z,1.00
2023-08-16T04:01:49.040Z,2.00
2023-08-16T04:02:49.108Z,2.00
2023-08-16T04:03:49.016Z,1.00
2023-08-16T04:04:49.028Z,1.00
2023-08-16T04:05:48.988Z,2.00
2023-08-16T04:06:48.989Z,1.00
2023-08-16T04:07:48.961Z,1.00
2023-08-16T04:08:48.960Z,3.00
2023-08-16T04:09:48.971Z,1.00
2023-08-16T04:10:48.950Z,5.00
2023-08-16T04:11:48.928Z,4.00
2023-08-16T04:12:48.922Z,8.00
2023-08-16T04:13:48.900Z,4.00
2023-08-16T04:14:48.895Z,4.00
2023-08-16T04:15:48.888Z,5.00
2023-08-16T04:16:48.879Z,6.00
2023-08-16T04:17:48.923Z,10.00
2023-08-16T04:18:48.854Z,12.00
2023-08-16T04:19:48.906Z,14.00
2023-08-16T04:20:48.858Z,22.00
2023-08-16T04:21:48.823Z,23.00
2023-08-16T04:22:48.822Z,24.00
2023-08-16T04:23:48.800Z,29.00
2023-08-16T04:24:48.811Z,31.00
2023-08-16T04:25:48.776Z,35.00
2023-08-16T04:26:50.890Z,39.00
2023-08-16T04:27:48.768Z,44.00
2023-08-16T04:28:48.802Z,45.00
2023-08-16T04:29:48.739Z,50.00
2023-08-16T04:30:48.732Z,50.00
2023-08-16T04:31:48.741Z,55.00
2023-08-16T04:32:48.774Z,60.00
2023-08-16T04:33:48.686Z,71.00
2023-08-16T04:34:48.695Z,78.00
2023-08-16T04:35:48.671Z,77.00
2023-08-16T04:36:48.694Z,76.00
2023-08-16T04:37:48.648Z,79.00
2023-08-16T04:38:48.656Z,83.00
2023-08-16T04:39:48.632Z,96.00
2023-08-16T04:40:48.634Z,106.00
2023-08-16T04:41:48.608Z,102.00
2023-08-16T04:42:48.604Z,102.00
2023-08-16T04:43:48.588Z,106.00
2023-08-16T04:44:48.599Z,116.00
2023-08-16T04:45:48.594Z,146.00
2023-08-16T04:46:48.572Z,167.00
2023-08-16T04:47:48.559Z,168.00
2023-08-16T04:48:48.544Z,175.00
2023-08-16T04:49:48.530Z,182.00
2023-08-16T04:50:48.510Z,188.00
2023-08-16T04:51:48.497Z,191.00
2023-08-16T04:52:48.602Z,194.00
2023-08-16T04:53:48.479Z,200.00
2023-08-16T04:54:48.483Z,211.00
2023-08-16T04:55:48.470Z,226.00
2023-08-16T04:56:48.463Z,227.00
2023-08-16T04:57:48.456Z,222.00
2023-08-16T04:58:48.438Z,225.00
2023-08-16T04:59:48.427Z,234.00
2023-08-16T05:00:48.423Z,236.00
2023-08-16T05:01:48.427Z,230.00
2023-08-16T05:02:48.411Z,238.00
2023-08-16T05:03:48.373Z,266.00
2023-08-16T05:04:48.377Z,294.00
2023-08-16T05:05:48.356Z,304.00
2023-08-16T05:06:48.352Z,305.00
2023-08-16T05:07:48.332Z,318.00
2023-08-16T05:08:48.365Z,330.00
2023-08-16T05:09:48.304Z,334.00
2023-08-16T05:10:48.313Z,348.00
2023-08-16T05:11:48.289Z,345.00
2023-08-16T05:12:48.290Z,353.00
2023-08-16T05:13:48.265Z,349.00
2023-08-16T05:14:48.256Z,352.00
2023-08-16T05:15:48.269Z,359.00
2023-08-16T05:16:48.253Z,373.00
2023-08-16T05:17:48.245Z,410.00
2023-08-16T05:18:48.231Z,414.00
2023-08-16T05:19:48.206Z,427.00
2023-08-16T05:20:48.198Z,443.00
2023-08-16T05:21:48.194Z,440.00
2023-08-16T05:22:48.178Z,447.00
2023-08-16T05:23:48.156Z,440.00
2023-08-16T05:24:48.191Z,415.00
2023-08-16T05:25:48.146Z,462.00
2023-08-16T05:26:48.132Z,453.00
2023-08-16T05:27:48.121Z,474.00
2023-08-16T05:28:48.124Z,492.00
2023-08-16T05:29:48.122Z,504.00
2023-08-16T05:30:48.094Z,522.00
2023-08-16T05:31:48.071Z,513.00
2023-08-16T05:32:48.129Z,625.00
2023-08-16T05:33:48.170Z,620.00
2023-08-16T05:34:48.059Z,641.00
2023-08-16T05:35:48.036Z,599.00
2023-08-16T05:36:48.024Z,546.00
2023-08-16T05:37:48.012Z,581.00
2023-08-16T05:38:48.006Z,622.00
2023-08-16T05:39:47.989Z,670.00
2023-08-16T05:40:48.026Z,663.00
2023-08-16T05:41:47.973Z,322.00
2023-08-16T05:42:47.971Z,1034.00
2023-08-16T05:43:47.948Z,569.00
2023-08-16T05:44:47.980Z,728.00
2023-08-16T05:45:47.929Z,578.00
2023-08-16T05:46:47.994Z,434.00
2023-08-16T05:47:47.932Z,775.00
2023-08-16T05:48:47.908Z,634.00
2023-08-16T05:49:47.882Z,528.00
2023-08-16T05:50:47.895Z,733.00
2023-08-16T05:51:47.870Z,250.00
2023-08-16T05:52:47.863Z,952.00
2023-08-16T05:53:47.850Z,681.00
2023-08-16T05:54:47.845Z,710.00
2023-08-16T05:55:47.817Z,220.00
2023-08-16T05:56:47.845Z,693.00
2023-08-16T05:57:47.812Z,512.00
2023-08-16T05:58:47.803Z,654.00
2023-08-16T05:59:47.784Z,1150.00
2023-08-16T06:00:47.830Z,298.00
2023-08-16T06:01:47.762Z,1280.00
2023-08-16T06:02:47.786Z,720.00
2023-08-16T06:03:47.763Z,693.00
2023-08-16T06:04:47.729Z,742.00
2023-08-16T06:05:47.712Z,835.00
2023-08-16T06:06:47.711Z,951.00
2023-08-16T06:07:47.694Z,1010.00
2023-08-16T06:08:47.692Z,1109.00
2023-08-16T06:09:47.673Z,1153.00
2023-08-16T06:10:47.672Z,1155.00
2023-08-16T06:11:47.677Z,1067.00
2023-08-16T06:12:47.679Z,420.00
2023-08-16T06:13:47.639Z,1118.00
2023-08-16T06:14:47.633Z,1631.00
2023-08-16T06:15:47.626Z,927.00
2023-08-16T06:16:47.627Z,875.00
2023-08-16T06:17:47.627Z,895.00
2023-08-16T06:18:47.599Z,998.00
2023-08-16T06:19:47.569Z,1006.00
2023-08-16T06:20:47.584Z,1247.00
2023-08-16T06:21:47.563Z,1196.00
2023-08-16T06:22:47.549Z,932.00
2023-08-16T06:23:47.533Z,1318.00
2023-08-16T06:24:47.532Z,479.00
2023-08-16T06:25:47.507Z,2203.00
2023-08-16T06:26:47.502Z,1261.00
2023-08-16T06:27:47.486Z,1180.00
2023-08-16T06:28:47.542Z,1209.00
2023-08-16T06:29:47.465Z,1124.00
2023-08-16T06:30:47.493Z,1732.00
2023-08-16T06:31:47.453Z,1125.00
2023-08-16T06:32:47.469Z,1244.00
2023-08-16T06:33:47.424Z,1046.00
2023-08-16T06:34:47.416Z,1258.00
2023-08-16T06:35:47.426Z,1131.00
2023-08-16T06:36:47.429Z,1121.00
2023-08-16T06:37:47.418Z,1083.00
2023-08-16T06:38:47.378Z,1110.00
2023-08-16T06:39:47.358Z,1048.00
2023-08-16T06:40:47.433Z,1286.00
2023-08-16T06:41:47.336Z,1220.00
2023-08-16T06:42:47.348Z,491.00
2023-08-16T06:43:47.319Z,2536.00
2023-08-16T06:44:47.403Z,557.00
2023-08-16T06:45:47.315Z,2291.00
2023-08-16T06:46:47.319Z,1885.00
2023-08-16T06:47:47.352Z,2196.00
2023-08-16T06:48:47.272Z,2592.00
2023-08-16T06:49:47.269Z,1026.00
2023-08-16T06:50:47.251Z,2015.00
2023-08-16T06:51:47.263Z,3361.00
2023-08-16T06:52:47.229Z,737.00
2023-08-16T06:53:47.278Z,2159.00
2023-08-16T06:54:47.205Z,2866.00
2023-08-16T06:55:47.199Z,2616.00
2023-08-16T06:56:47.176Z,2577.00
2023-08-16T06:57:47.188Z,4294.00
2023-08-16T06:58:47.164Z,3031.00
2023-08-16T06:59:47.162Z,2227.00
2023-08-16T07:00:47.219Z,1752.00
2023-08-16T07:01:47.149Z,876.00
2023-08-16T07:02:47.212Z,1526.00
2023-08-16T07:03:47.192Z,2110.00
2023-08-16T07:04:47.099Z,3655.00
2023-08-16T07:05:47.094Z,3007.00
2023-08-16T07:06:47.071Z,1856.00
2023-08-16T07:07:48.157Z,3279.00
2023-08-16T07:08:47.050Z,3538.00
2023-08-16T07:09:47.059Z,2452.00
2023-08-16T07:10:47.049Z,989.00
2023-08-16T07:11:47.028Z,2974.00
2023-08-16T07:12:47.013Z,1549.00
2023-08-16T07:13:47.017Z,3192.00
2023-08-16T07:14:46.988Z,2710.00
2023-08-16T07:15:46.992Z,2043.00
2023-08-16T07:16:47.053Z,3287.00
2023-08-16T07:17:47.016Z,2315.00
2023-08-16T07:18:46.951Z,2301.00
2023-08-16T07:19:46.947Z,1808.00
2023-08-16T07:20:46.933Z,2183.00
2023-08-16T07:21:46.934Z,2250.00
2023-08-16T07:22:46.915Z,1106.00
2023-08-16T07:23:46.901Z,1252.00
2023-08-16T07:24:46.897Z,2913.00
2023-08-16T07:25:46.880Z,3664.00
2023-08-16T07:26:46.866Z,2340.00
2023-08-16T07:27:46.862Z,1353.00
2023-08-16T07:28:46.842Z,2006.00
2023-08-16T07:29:46.858Z,1026.00
2023-08-16T07:30:46.829Z,2072.00
2023-08-16T07:31:46.938Z,2324.00
2023-08-16T07:32:46.858Z,3118.00
2023-08-16T07:33:46.808Z,2284.00
2023-08-16T07:34:46.789Z,1055.00
2023-08-16T07:35:46.779Z,2997.00
2023-08-16T07:36:46.769Z,2347.00
2023-08-16T07:37:46.760Z,2100.00
2023-08-16T07:38:46.763Z,1805.00
2023-08-16T07:39:46.753Z,1740.00
2023-08-16T07:40:46.720Z,1416.00
2023-08-16T07:41:46.722Z,1866.00
2023-08-16T07:42:46.711Z,2059.00
2023-08-16T07:43:46.700Z,1258.00
2023-08-16T07:44:46.682Z,3369.00
2023-08-16T07:45:46.741Z,1074.00
2023-08-16T07:46:46.681Z,1036.00
2023-08-16T07:47:46.676Z,1892.00
2023-08-16T07:48:46.657Z,4373.00
2023-08-16T07:49:46.649Z,1048.00
2023-08-16T07:50:46.626Z,4117.00
2023-08-16T07:51:46.648Z,1549.00
2023-08-16T07:52:46.621Z,3446.00
2023-08-16T07:53:46.629Z,2622.00
2023-08-16T07:54:47.281Z,2289.00
2023-08-16T07:55:46.572Z,1278.00
2023-08-16T07:56:46.554Z,2910.00
2023-08-16T07:57:46.554Z,3100.00
2023-08-16T07:58:46.539Z,3195.00
2023-08-16T07:59:46.524Z,3194.00
2023-08-16T08:00:46.522Z,3106.00
2023-08-16T08:01:46.541Z,4220.00
2023-08-16T08:02:57.488Z,2264.00
2023-08-16T08:03:46.528Z,3949.00
2023-08-16T08:04:46.608Z,1457.00
2023-08-16T08:05:46.465Z,3783.00
2023-08-16T08:06:46.450Z,3460.00
2023-08-16T08:07:46.457Z,2860.00
2023-08-16T08:08:46.437Z,2496.00
2023-08-16T08:09:46.479Z,2092.00
2023-08-16T08:10:46.411Z,1923.00
2023-08-16T08:11:46.402Z,1897.00
2023-08-16T08:12:46.399Z,1766.00
2023-08-16T08:13:46.386Z,1630.00
2023-08-16T08:14:46.363Z,754.00
2023-08-16T08:15:46.406Z,2188.00
2023-08-16T08:16:46.351Z,777.00
2023-08-16T08:17:46.372Z,1527.00
2023-08-16T08:18:46.336Z,1446.00
2023-08-16T08:19:46.331Z,2734.00
2023-08-16T08:20:46.329Z,2309.00
2023-08-16T08:21:46.308Z,2609.00
2023-08-16T08:22:46.294Z,2271.00
2023-08-16T08:23:46.280Z,2014.00
2023-08-16T08:24:46.389Z,2127.00
2023-08-16T08:25:46.269Z,1584.00
2023-08-16T08:26:46.250Z,1737.00
2023-08-16T08:27:46.238Z,1666.00
2023-08-16T08:28:46.245Z,1986.00
2023-08-16T08:29:46.233Z,3180.00
2023-08-16T08:30:46.209Z,2656.00
2023-08-16T08:31:46.260Z,2355.00
2023-08-16T08:32:46.217Z,1882.00
2023-08-16T08:33:46.206Z,2206.00
2023-08-16T08:34:46.195Z,2515.00
2023-08-16T08:35:46.165Z,2824.00
2023-08-16T08:36:46.218Z,2825.00
2023-08-16T08:37:46.143Z,2667.00
2023-08-16T08:38:46.124Z,2526.00
2023-08-16T08:39:46.122Z,2610.00
2023-08-16T08:40:46.112Z,2851.00
2023-08-16T08:41:48.336Z,2812.00
2023-08-16T08:42:46.081Z,2593.00
2023-08-16T08:43:59.467Z,2642.00
2023-08-16T08:44:47.113Z,2546.00
2023-08-16T08:45:46.095Z,2378.00
2023-08-16T08:46:46.051Z,2414.00
2023-08-16T08:47:46.124Z,4495.00
2023-08-16T08:48:46.029Z,1170.00
2023-08-16T08:49:46.050Z,3405.00
2023-08-16T08:50:46.014Z,3695.00
2023-08-16T08:51:45.997Z,2916.00
2023-08-16T08:52:46.017Z,3025.00
2023-08-16T08:53:45.976Z,3789.00
2023-08-16T08:54:45.964Z,2596.00
2023-08-16T08:55:45.984Z,3153.00
2023-08-16T08:56:45.940Z,3214.00
2023-08-16T08:57:45.946Z,2721.00
2023-08-16T08:58:46.061Z,2889.00
2023-08-16T08:59:45.931Z,2753.00
2023-08-16T09:00:45.902Z,2659.00
2023-08-16T09:01:46.000Z,2635.00
2023-08-16T09:02:45.914Z,2737.00
2023-08-16T09:03:46.143Z,2517.00
2023-08-16T09:04:45.871Z,2506.00
2023-08-16T09:05:45.878Z,2450.00
2023-08-16T09:06:45.848Z,2771.00
2023-08-16T09:07:45.845Z,2602.00
2023-08-16T09:08:45.856Z,2589.00
2023-08-16T09:09:45.830Z,3020.00
2023-08-16T09:10:45.807Z,2914.00
2023-08-16T09:11:45.797Z,2952.00
2023-08-16T09:12:45.790Z,2985.00
2023-08-16T09:13:45.802Z,2970.00
2023-08-16T09:14:45.765Z,2811.00
2023-08-16T09:15:45.802Z,2845.00
2023-08-16T09:16:45.736Z,2936.00
2023-08-16T09:17:45.754Z,4343.00
2023-08-16T09:18:45.720Z,936.00
2023-08-16T09:19:45.740Z,3583.00
2023-08-16T09:20:45.712Z,2528.00
2023-08-16T09:21:45.702Z,2650.00
2023-08-16T09:22:45.713Z,4514.00
2023-08-16T09:23:45.680Z,2174.00
2023-08-16T09:24:45.717Z,1031.00
2023-08-16T09:25:45.662Z,5286.00
2023-08-16T09:26:45.641Z,2294.00
2023-08-16T09:27:45.636Z,1369.00
2023-08-16T09:28:45.626Z,3533.00
2023-08-16T09:29:45.643Z,4644.00
2023-08-16T09:30:45.606Z,6190.00
2023-08-16T09:31:45.656Z,5440.00
2023-08-16T09:32:45.613Z,4218.00
2023-08-16T09:33:45.589Z,2332.00
2023-08-16T09:35:45.572Z,2641.00
2023-08-16T09:36:45.547Z,3402.00
2023-08-16T09:37:45.548Z,5643.00
2023-08-16T09:38:45.521Z,1097.00
2023-08-16T09:39:45.538Z,4368.00
2023-08-16T09:40:45.523Z,3096.00
2023-08-16T09:41:45.518Z,4580.00
2023-08-16T09:42:45.498Z,4116.00
2023-08-16T09:43:45.475Z,1426.00
2023-08-16T09:44:45.471Z,4400.00
2023-08-16T09:45:45.474Z,5474.00
2023-08-16T09:49:45.456Z,3647.00
2023-08-16T09:52:45.385Z,3433.00
2023-08-16T09:53:48.576Z,3555.00
2023-08-16T09:54:45.442Z,3491.00
2023-08-16T09:55:45.363Z,2297.00
2023-08-16T09:57:46.404Z,4186.00
2023-08-16T09:58:45.327Z,4549.00
2023-08-16T09:59:45.322Z,4711.00
2023-08-16T10:00:45.327Z,4610.00
2023-08-16T10:03:59.819Z,4619.00
2023-08-16T10:05:47.569Z,4549.00
2023-08-16T10:07:45.240Z,6009.00
2023-08-16T10:08:45.228Z,2694.00
2023-08-16T10:09:45.244Z,5131.00
2023-08-16T10:10:45.221Z,1957.00
2023-08-16T10:11:45.211Z,4390.00
2023-08-16T10:12:45.222Z,4857.00
2023-08-16T10:13:45.188Z,4108.00
2023-08-16T10:14:45.160Z,5350.00
2023-08-16T10:15:45.169Z,5384.00
2023-08-16T10:16:45.248Z,3907.00
2023-08-16T10:17:45.156Z,3884.00
2023-08-16T10:18:45.127Z,3728.00
2023-08-16T10:19:45.776Z,4419.00
2023-08-16T10:20:45.117Z,3893.00
2023-08-16T10:21:45.096Z,3416.00
2023-08-16T10:22:45.081Z,3268.00
2023-08-16T10:23:45.089Z,1257.00
2023-08-16T10:25:45.085Z,4188.00
2023-08-16T10:26:45.049Z,5126.00
2023-08-16T10:27:45.186Z,2504.00
2023-08-16T10:28:45.053Z,5787.00
2023-08-16T10:29:45.028Z,1954.00
2023-08-16T10:31:13.354Z,4594.00
2023-08-16T10:31:46.165Z,4588.00
2023-08-16T10:32:45.024Z,4138.00
2023-08-16T10:33:44.983Z,3286.00
2023-08-16T10:34:44.982Z,3354.00
2023-08-16T10:35:44.985Z,3508.00
2023-08-16T10:36:44.940Z,4195.00
2023-08-16T10:38:44.928Z,4694.00
2023-08-16T10:39:45.113Z,3921.00
2023-08-16T10:40:44.953Z,2959.00
2023-08-16T10:41:44.931Z,2770.00
2023-08-16T10:42:44.886Z,2895.00
2023-08-16T10:43:46.390Z,2631.00
2023-08-16T10:44:44.886Z,3977.00
2023-08-16T10:45:58.893Z,4990.00
2023-08-16T10:46:45.924Z,5870.00
2023-08-16T10:47:44.891Z,3668.00
2023-08-16T10:48:44.820Z,3307.00
2023-08-16T10:49:44.821Z,4087.00
2023-08-16T10:50:44.804Z,4255.00
2023-08-16T10:51:44.801Z,4014.00
2023-08-16T10:52:44.795Z,3977.00
2023-08-16T10:53:44.792Z,4613.00
2023-08-16T10:54:44.762Z,5499.00
2023-08-16T10:55:44.774Z,4979.00
2023-08-16T10:56:44.746Z,4912.00
2023-08-16T10:57:44.750Z,4238.00
2023-08-16T10:58:44.720Z,4200.00
2023-08-16T10:59:44.731Z,5217.00
2023-08-16T11:00:44.745Z,4714.00
2023-08-16T11:01:44.785Z,5463.00
2023-08-16T11:02:44.780Z,5367.00
2023-08-16T11:03:44.684Z,5038.00
2023-08-16T11:04:44.757Z,4573.00
2023-08-16T11:05:44.653Z,5662.00
2023-08-16T11:06:55.818Z,5843.00
2023-08-16T11:07:45.686Z,5548.00
2023-08-16T11:08:44.631Z,5951.00
2023-08-16T11:09:44.615Z,4938.00
2023-08-16T11:10:44.623Z,6664.00
2023-08-16T11:11:44.593Z,5343.00
2023-08-16T11:12:44.586Z,5461.00
2023-08-16T11:13:44.574Z,6177.00
2023-08-16T11:14:44.581Z,6090.00
2023-08-16T11:15:44.570Z,5652.00
2023-08-16T11:16:44.709Z,5382.00
2023-08-16T11:17:46.943Z,5061.00
2023-08-16T11:18:45.581Z,5045.00
2023-08-16T11:19:44.633Z,4697.00
2023-08-16T11:20:44.612Z,4813.00
2023-08-16T11:21:44.920Z,4519.00
2023-08-16T11:22:44.505Z,4382.00
2023-08-16T11:23:44.482Z,4450.00
2023-08-16T11:24:44.471Z,5074.00
2023-08-16T11:25:44.465Z,6391.00
2023-08-16T11:26:44.478Z,7380.00
2023-08-16T11:27:44.447Z,5961.00
2023-08-16T11:28:44.439Z,7754.00
2023-08-16T11:29:44.423Z,7536.00
2023-08-16T11:30:44.626Z,5783.00
2023-08-16T11:31:44.446Z,6644.00
2023-08-16T11:32:44.450Z,7081.00
2023-08-16T11:33:44.394Z,6556.00
2023-08-16T11:34:44.427Z,6654.00
2023-08-16T11:35:44.363Z,7941.00
2023-08-16T11:36:44.396Z,7172.00
2023-08-16T11:37:44.345Z,7125.00
2023-08-16T11:38:44.353Z,6685.00
2023-08-16T11:39:44.318Z,7241.00
2023-08-16T11:40:44.333Z,7684.00
2023-08-16T11:41:44.318Z,7820.00
2023-08-16T11:42:44.307Z,8090.00
2023-08-16T11:43:44.287Z,7559.00
2023-08-16T11:44:44.302Z,6977.00
2023-08-16T11:45:44.480Z,6092.00
2023-08-16T11:46:44.329Z,5316.00
2023-08-16T11:47:44.679Z,7658.00
2023-08-16T11:48:44.286Z,6388.00
2023-08-16T11:49:44.228Z,6609.00
2023-08-16T11:50:44.226Z,5876.00
2023-08-16T11:51:44.207Z,6320.00
2023-08-16T11:52:44.624Z,6205.00
2023-08-16T11:53:44.197Z,6707.00
2023-08-16T11:54:44.189Z,5711.00
2023-08-16T11:55:44.382Z,4335.00
2023-08-16T11:56:44.162Z,10469.00
2023-08-16T11:57:44.362Z,8302.00
2023-08-16T11:58:44.151Z,7170.00
2023-08-16T11:59:44.134Z,6207.00
2023-08-16T12:00:44.135Z,5589.00
2023-08-16T12:01:44.121Z,4701.00
2023-08-16T12:02:44.337Z,4538.00
2023-08-16T12:03:44.156Z,4127.00
2023-08-16T12:04:44.192Z,4333.00
2023-08-16T12:05:44.278Z,4783.00
2023-08-16T12:06:44.298Z,5624.00
2023-08-16T12:07:44.066Z,5452.00
2023-08-16T12:08:44.067Z,5332.00
2023-08-16T12:09:44.229Z,5282.00
2023-08-16T12:10:44.076Z,5310.00
2023-08-16T12:11:44.004Z,5732.00
2023-08-16T12:12:44.004Z,6842.00
2023-08-16T12:13:44.006Z,5377.00
2023-08-16T12:14:44.000Z,9839.00
2023-08-16T12:15:44.095Z,6809.00
2023-08-16T12:16:43.986Z,6533.00
2023-08-16T12:17:44.155Z,7147.00
2023-08-16T12:18:43.970Z,8968.00
2023-08-16T12:19:43.942Z,8427.00
2023-08-16T12:20:43.977Z,7432.00
2023-08-16T12:21:44.115Z,9117.00
2023-08-16T12:22:43.912Z,8257.00
2023-08-16T12:23:43.899Z,7218.00
2023-08-16T12:24:43.891Z,6455.00
2023-08-16T12:25:43.876Z,5775.00
2023-08-16T12:26:43.888Z,5493.00
2023-08-16T12:27:44.079Z,5773.00
2023-08-16T12:28:43.850Z,5768.00
2023-08-16T12:29:43.832Z,6127.00
2023-08-16T12:30:43.830Z,5758.00
2023-08-16T12:31:43.882Z,5662.00
2023-08-16T12:32:43.843Z,5506.00
2023-08-16T12:33:43.860Z,5955.00
2023-08-16T12:35:43.798Z,6026.00
2023-08-16T12:36:44.023Z,6341.00
2023-08-16T12:37:45.525Z,6595.00
2023-08-16T12:38:43.963Z,7899.00
2023-08-16T12:39:43.942Z,8596.00
2023-08-16T12:40:43.740Z,7620.00
2023-08-16T12:41:43.714Z,8881.00
2023-08-16T12:42:43.731Z,7395.00
2023-08-16T12:43:43.904Z,8109.00
2023-08-16T12:44:43.690Z,7922.00
2023-08-16T12:45:43.702Z,6962.00
2023-08-16T12:46:43.683Z,8357.00
2023-08-16T12:47:43.737Z,8405.00